Barnard Township, Maine
Current Conditions -  °F | °C
As of 4:53 PM on Monday 22 Dec 2014 (Local Time) from KMLT Reporting Station
Overcast Overcast  
Wind Chill: 30°   Ceiling: 4300
Heat Index: 30°   Visibility: 10mi
Dew Point: 28°   Wind: 0mph
Humidity: 92%   Direction: NA
Pressure: 30.42"   Gusts: NA
Location:  45.4731°N, 69.1129°W
Report Text: KMLT 222153Z AUTO 00000KT 10SM OVC043 M01/M02 A3042 RMK AO2 SLP311 T10111022
Loading
Personal Weather Stations






























Interactive Weather Map New forecast layout! Learn more

10-Day Weather Forecast

Advertisements
Track Severe Weather on mobile